sensor_id;sensor_type;location;lat;lon;timestamp;pressure;altitude;pressure_sealevel;temperature;humidity
2405;BME280;1213;43.206;27.922;2022-08-06T00:01:03;100892.28;;;22.89;100.00
2405;BME280;1213;43.206;27.922;2022-08-06T00:03:28;100885.44;;;22.87;100.00
2405;BME280;1213;43.206;27.922;2022-08-06T00:05:54;100888.44;;;22.92;100.00
2405;BME280;1213;43.206;27.922;2022-08-06T00:08:19;100890.28;;;22.91;100.00
2405;BME280;1213;43.206;27.922;2022-08-06T00:10:45;100885.63;;;22.85;100.00
2405;BME280;1213;43.206;27.922;2022-08-06T00:13:11;100893.59;;;22.93;100.00
2405;BME280;1213;43.206;27.922;2022-08-06T00:15:36;100890.63;;;22.88;100.00
2405;BME280;1213;43.206;27.922;2022-08-06T00:18:02;100880.72;;;22.89;100.00
2405;BME280;1213;43.206;27.922;2022-08-06T00:20:28;100887.63;;;22.83;100.00
2405;BME280;1213;43.206;27.922;2022-08-06T00:22:53;100886.91;;;22.89;100.00
2405;BME280;1213;43.206;27.922;2022-08-06T00:25:19;100889.44;;;22.91;100.00
2405;BME280;1213;43.206;27.922;2022-08-06T00:27:44;100882.25;;;22.91;100.00
2405;BME280;1213;43.206;27.922;2022-08-06T00:30:10;100876.38;;;22.88;100.00
2405;BME280;1213;43.206;27.922;2022-08-06T00:32:36;100880.59;;;22.82;100.00
2405;BME280;1213;43.206;27.922;2022-08-06T00:35:02;100875.59;;;22.79;100.00
2405;BME280;1213;43.206;27.922;2022-08-06T00:37:27;100881.41;;;22.91;100.00
2405;BME280;1213;43.206;27.922;2022-08-06T00:39:55;100882.28;;;22.83;100.00
2405;BME280;1213;43.206;27.922;2022-08-06T00:42:20;100884.66;;;22.78;100.00
2405;BME280;1213;43.206;27.922;2022-08-06T00:44:46;100881.31;;;22.76;100.00
2405;BME280;1213;43.206;27.922;2022-08-06T00:47:11;100885.53;;;22.70;100.00
2405;BME280;1213;43.206;27.922;2022-08-06T00:49:37;100884.88;;;22.68;100.00
2405;BME280;1213;43.206;27.922;2022-08-06T00:52:03;100886.75;;;22.68;100.00
2405;BME280;1213;43.206;27.922;2022-08-06T00:54:28;100884.38;;;22.65;100.00
2405;BME280;1213;43.206;27.922;2022-08-06T00:56:54;100887.06;;;22.65;100.00
2405;BME280;1213;43.206;27.922;2022-08-06T00:59:19;100893.44;;;22.64;100.00
2405;BME280;1213;43.206;27.922;2022-08-06T01:01:45;100878.75;;;22.60;100.00
2405;BME280;1213;43.206;27.922;2022-08-06T01:04:11;100884.44;;;22.57;100.00
2405;BME280;1213;43.206;27.922;2022-08-06T01:06:36;100881.81;;;22.49;100.00
2405;BME280;1213;43.206;27.922;2022-08-06T01:09:02;100894.75;;;22.45;100.00
2405;BME280;1213;43.206;27.922;2022-08-06T01:11:27;100888.56;;;22.45;100.00
2405;BME280;1213;43.206;27.922;2022-08-06T01:13:53;100889.72;;;22.42;100.00
2405;BME280;1213;43.206;27.922;2022-08-06T01:16:43;100879.72;;;22.36;100.00
2405;BME280;1213;43.206;27.922;2022-08-06T01:19:45;100876.69;;;22.39;100.00
2405;BME280;1213;43.206;27.922;2022-08-06T01:25:08;100875.69;;;22.40;100.00
2405;BME280;1213;43.206;27.922;2022-08-06T01:30:21;100870.72;;;22.29;100.00
2405;BME280;1213;43.206;27.922;2022-08-06T01:32:53;100868.56;;;22.24;100.00
2405;BME280;1213;43.206;27.922;2022-08-06T01:35:30;100869.09;;;22.20;100.00
2405;BME280;1213;43.206;27.922;2022-08-06T01:38:20;100874.44;;;22.20;100.00
2405;BME280;1213;43.206;27.922;2022-08-06T01:40:49;100878.31;;;22.17;100.00
2405;BME280;1213;43.206;27.922;2022-08-06T01:43:18;100872.13;;;22.17;100.00
2405;BME280;1213;43.206;27.922;2022-08-06T01:45:45;100870.94;;;22.19;100.00
2405;BME280;1213;43.206;27.922;2022-08-06T01:48:18;100865.94;;;22.16;100.00
2405;BME280;1213;43.206;27.922;2022-08-06T01:50:46;100867.94;;;22.14;100.00
2405;BME280;1213;43.206;27.922;2022-08-06T01:53:17;100871.16;;;22.09;100.00
2405;BME280;1213;43.206;27.922;2022-08-06T01:55:47;100862.59;;;22.06;100.00
2405;BME280;1213;43.206;27.922;2022-08-06T01:58:17;100867.94;;;22.06;100.00
2405;BME280;1213;43.206;27.922;2022-08-06T02:00:46;100868.78;;;22.06;100.00
2405;BME280;1213;43.206;27.922;2022-08-06T02:03:24;100863.13;;;22.09;100.00
2405;BME280;1213;43.206;27.922;2022-08-06T02:05:51;100870.16;;;22.10;100.00
2405;BME280;1213;43.206;27.922;2022-08-06T02:08:20;100864.44;;;22.05;100.00
2405;BME280;1213;43.206;27.922;2022-08-06T02:10:47;100875.69;;;22.01;100.00
2405;BME280;1213;43.206;27.922;2022-08-06T02:13:14;100866.00;;;22.00;100.00
2405;BME280;1213;43.206;27.922;2022-08-06T02:15:42;100868.13;;;22.04;100.00
2405;BME280;1213;43.206;27.922;2022-08-06T02:18:09;100862.59;;;22.06;100.00
2405;BME280;1213;43.206;27.922;2022-08-06T02:20:39;100861.47;;;22.00;100.00
2405;BME280;1213;43.206;27.922;2022-08-06T02:23:13;100869.13;;;22.03;100.00
2405;BME280;1213;43.206;27.922;2022-08-06T02:25:42;100876.34;;;22.03;100.00
2405;BME280;1213;43.206;27.922;2022-08-06T02:28:09;100866.81;;;22.00;100.00
2405;BME280;1213;43.206;27.922;2022-08-06T02:30:40;100869.16;;;21.95;100.00
2405;BME280;1213;43.206;27.922;2022-08-06T02:33:08;100867.31;;;21.96;100.00
2405;BME280;1213;43.206;27.922;2022-08-06T02:35:54;100871.50;;;21.98;100.00
2405;BME280;1213;43.206;27.922;2022-08-06T02:38:27;100876.03;;;21.89;100.00
2405;BME280;1213;43.206;27.922;2022-08-06T02:41:02;100867.69;;;21.93;100.00
2405;BME280;1213;43.206;27.922;2022-08-06T02:43:39;100868.38;;;21.86;100.00
2405;BME280;1213;43.206;27.922;2022-08-06T02:46:25;100866.34;;;21.88;100.00
2405;BME280;1213;43.206;27.922;2022-08-06T02:48:56;100869.88;;;21.81;100.00
2405;BME280;1213;43.206;27.922;2022-08-06T02:51:38;100872.75;;;21.79;100.00
2405;BME280;1213;43.206;27.922;2022-08-06T02:54:20;100878.06;;;21.87;100.00
2405;BME280;1213;43.206;27.922;2022-08-06T02:56:50;100884.75;;;21.83;100.00
2405;BME280;1213;43.206;27.922;2022-08-06T02:59:23;100882.06;;;21.83;100.00
2405;BME280;1213;43.206;27.922;2022-08-06T03:01:54;100889.97;;;21.85;100.00
2405;BME280;1213;43.206;27.922;2022-08-06T03:04:23;100887.59;;;21.82;100.00
2405;BME280;1213;43.206;27.922;2022-08-06T03:06:52;100886.78;;;21.81;100.00
2405;BME280;1213;43.206;27.922;2022-08-06T03:09:20;100881.97;;;21.77;100.00
2405;BME280;1213;43.206;27.922;2022-08-06T03:11:47;100883.47;;;21.71;100.00
2405;BME280;1213;43.206;27.922;2022-08-06T03:14:15;100887.16;;;21.70;100.00
2405;BME280;1213;43.206;27.922;2022-08-06T03:16:42;100882.31;;;21.66;100.00
2405;BME280;1213;43.206;27.922;2022-08-06T03:19:09;100887.31;;;21.69;100.00
2405;BME280;1213;43.206;27.922;2022-08-06T03:21:35;100886.97;;;21.72;100.00
2405;BME280;1213;43.206;27.922;2022-08-06T03:24:02;100887.31;;;21.69;100.00
2405;BME280;1213;43.206;27.922;2022-08-06T03:26:30;100888.66;;;21.73;100.00
2405;BME280;1213;43.206;27.922;2022-08-06T03:28:58;100884.28;;;21.80;100.00
2405;BME280;1213;43.206;27.922;2022-08-06T03:31:27;100881.97;;;21.77;100.00
2405;BME280;1213;43.206;27.922;2022-08-06T03:33:53;100883.44;;;21.79;100.00
2405;BME280;1213;43.206;27.922;2022-08-06T03:36:20;100891.81;;;21.84;100.00
2405;BME280;1213;43.206;27.922;2022-08-06T03:38:54;100890.28;;;21.82;100.00
2405;BME280;1213;43.206;27.922;2022-08-06T03:41:20;100893.31;;;21.79;100.00
2405;BME280;1213;43.206;27.922;2022-08-06T03:43:47;100883.44;;;21.79;100.00
2405;BME280;1213;43.206;27.922;2022-08-06T03:46:13;100883.91;;;21.83;100.00
2405;BME280;1213;43.206;27.922;2022-08-06T03:48:42;100892.13;;;21.81;100.00
2405;BME280;1213;43.206;27.922;2022-08-06T03:51:13;100889.28;;;21.83;100.00
2405;BME280;1213;43.206;27.922;2022-08-06T03:53:42;100890.44;;;21.88;100.00
2405;BME280;1213;43.206;27.922;2022-08-06T03:56:14;100893.91;;;21.97;100.00
2405;BME280;1213;43.206;27.922;2022-08-06T03:58:43;100893.72;;;21.99;100.00
2405;BME280;1213;43.206;27.922;2022-08-06T04:01:26;100889.25;;;21.99;100.00
2405;BME280;1213;43.206;27.922;2022-08-06T04:03:53;100893.44;;;21.94;100.00
2405;BME280;1213;43.206;27.922;2022-08-06T04:06:21;100897.41;;;21.98;100.00
2405;BME280;1213;43.206;27.922;2022-08-06T04:08:48;100894.06;;;22.04;100.00
2405;BME280;1213;43.206;27.922;2022-08-06T04:11:15;100901.91;;;22.05;100.00
2405;BME280;1213;43.206;27.922;2022-08-06T04:13:42;100891.06;;;22.07;100.00
2405;BME280;1213;43.206;27.922;2022-08-06T04:16:10;100896.56;;;22.13;100.00
2405;BME280;1213;43.206;27.922;2022-08-06T04:18:38;100892.34;;;22.19;100.00
2405;BME280;1213;43.206;27.922;2022-08-06T04:21:14;100890.50;;;22.20;100.00
2405;BME280;1213;43.206;27.922;2022-08-06T04:23:41;100887.00;;;22.19;100.00
2405;BME280;1213;43.206;27.922;2022-08-06T04:26:07;100892.03;;;22.22;100.00
2405;BME280;1213;43.206;27.922;2022-08-06T04:28:36;100892.44;;;22.34;100.00
2405;BME280;1213;43.206;27.922;2022-08-06T04:31:02;100882.69;;;22.41;100.00
2405;BME280;1213;43.206;27.922;2022-08-06T04:33:30;100891.88;;;22.47;100.00
2405;BME280;1213;43.206;27.922;2022-08-06T04:36:00;100892.03;;;22.53;100.00
2405;BME280;1213;43.206;27.922;2022-08-06T04:38:31;100896.50;;;22.61;100.00
2405;BME280;1213;43.206;27.922;2022-08-06T04:40:58;100892.69;;;22.78;100.00
2405;BME280;1213;43.206;27.922;2022-08-06T04:43:24;100898.78;;;22.95;100.00
2405;BME280;1213;43.206;27.922;2022-08-06T04:45:50;100899.13;;;23.15;100.00
2405;BME280;1213;43.206;27.922;2022-08-06T04:48:16;100892.38;;;23.19;100.00
2405;BME280;1213;43.206;27.922;2022-08-06T04:50:42;100901.69;;;23.08;100.00
2405;BME280;1213;43.206;27.922;2022-08-06T04:53:10;100897.63;;;23.12;100.00
2405;BME280;1213;43.206;27.922;2022-08-06T04:55:36;100900.78;;;23.16;100.00
2405;BME280;1213;43.206;27.922;2022-08-06T04:58:03;100904.06;;;23.26;100.00
2405;BME280;1213;43.206;27.922;2022-08-06T05:00:30;100895.09;;;23.34;100.00
2405;BME280;1213;43.206;27.922;2022-08-06T05:02:55;100897.34;;;23.45;100.00
2405;BME280;1213;43.206;27.922;2022-08-06T05:05:21;100906.88;;;23.47;100.00
2405;BME280;1213;43.206;27.922;2022-08-06T05:07:51;100902.63;;;23.53;100.00
2405;BME280;1213;43.206;27.922;2022-08-06T05:10:17;100903.72;;;23.67;100.00
2405;BME280;1213;43.206;27.922;2022-08-06T05:12:45;100905.09;;;23.77;100.00
2405;BME280;1213;43.206;27.922;2022-08-06T05:15:16;100902.50;;;23.84;100.00
2405;BME280;1213;43.206;27.922;2022-08-06T05:17:48;100902.94;;;23.88;100.00
2405;BME280;1213;43.206;27.922;2022-08-06T05:20:16;100913.88;;;23.86;100.00
2405;BME280;1213;43.206;27.922;2022-08-06T05:22:45;100914.91;;;24.00;100.00
2405;BME280;1213;43.206;27.922;2022-08-06T05:25:11;100905.09;;;24.07;100.00
2405;BME280;1213;43.206;27.922;2022-08-06T05:27:39;100908.38;;;24.24;100.00
2405;BME280;1213;43.206;27.922;2022-08-06T05:30:06;100910.34;;;24.30;100.00
2405;BME280;1213;43.206;27.922;2022-08-06T05:32:46;100903.94;;;24.31;100.00
2405;BME280;1213;43.206;27.922;2022-08-06T05:35:13;100900.81;;;24.42;100.00
2405;BME280;1213;43.206;27.922;2022-08-06T05:37:39;100908.44;;;24.60;100.00
2405;BME280;1213;43.206;27.922;2022-08-06T05:40:06;100904.81;;;24.68;100.00
2405;BME280;1213;43.206;27.922;2022-08-06T05:42:32;100909.22;;;24.75;100.00
2405;BME280;1213;43.206;27.922;2022-08-06T05:44:58;100912.81;;;24.82;100.00
2405;BME280;1213;43.206;27.922;2022-08-06T05:47:26;100912.13;;;24.95;100.00
2405;BME280;1213;43.206;27.922;2022-08-06T05:50:01;100913.69;;;25.04;100.00
2405;BME280;1213;43.206;27.922;2022-08-06T05:52:45;100914.19;;;25.14;100.00
2405;BME280;1213;43.206;27.922;2022-08-06T05:55:19;100917.41;;;25.31;100.00
2405;BME280;1213;43.206;27.922;2022-08-06T06:00:42;100912.19;;;25.51;100.00
2405;BME280;1213;43.206;27.922;2022-08-06T06:03:11;100911.78;;;25.54;100.00
2405;BME280;1213;43.206;27.922;2022-08-06T06:05:37;100909.56;;;25.58;100.00
2405;BME280;1213;43.206;27.922;2022-08-06T06:08:05;100911.78;;;25.54;100.00
2405;BME280;1213;43.206;27.922;2022-08-06T06:10:31;100909.00;;;25.69;100.00
2405;BME280;1213;43.206;27.922;2022-08-06T06:12:59;100902.66;;;25.77;100.00
2405;BME280;1213;43.206;27.922;2022-08-06T06:15:26;100902.53;;;25.91;100.00
2405;BME280;1213;43.206;27.922;2022-08-06T06:23:17;100890.63;;;26.14;100.00
2405;BME280;1213;43.206;27.922;2022-08-06T06:26:35;100895.00;;;26.21;100.00
2405;BME280;1213;43.206;27.922;2022-08-06T06:32:00;100895.69;;;26.37;100.00
2405;BME280;1213;43.206;27.922;2022-08-06T06:34:50;100891.63;;;26.47;100.00
2405;BME280;1213;43.206;27.922;2022-08-06T06:40:31;100887.28;;;26.46;100.00
2405;BME280;1213;43.206;27.922;2022-08-06T06:46:04;100892.88;;;26.58;100.00
2405;BME280;1213;43.206;27.922;2022-08-06T06:48:38;100894.78;;;26.64;100.00
2405;BME280;1213;43.206;27.922;2022-08-06T06:51:09;100901.25;;;26.76;100.00
2405;BME280;1213;43.206;27.922;2022-08-06T06:53:39;100901.03;;;26.85;100.00
2405;BME280;1213;43.206;27.922;2022-08-06T06:56:07;100901.25;;;26.96;100.00
2405;BME280;1213;43.206;27.922;2022-08-06T06:58:41;100898.38;;;27.04;100.00
2405;BME280;1213;43.206;27.922;2022-08-06T07:01:10;100895.28;;;27.14;100.00
2405;BME280;1213;43.206;27.922;2022-08-06T07:03:38;100898.19;;;27.19;100.00
2405;BME280;1213;43.206;27.922;2022-08-06T07:06:06;100899.84;;;27.14;100.00
2405;BME280;1213;43.206;27.922;2022-08-06T07:08:37;100905.66;;;27.30;100.00
2405;BME280;1213;43.206;27.922;2022-08-06T07:11:06;100902.97;;;27.30;100.00
2405;BME280;1213;43.206;27.922;2022-08-06T07:13:35;100906.50;;;27.44;100.00
2405;BME280;1213;43.206;27.922;2022-08-06T07:16:02;100900.03;;;27.52;100.00
2405;BME280;1213;43.206;27.922;2022-08-06T07:18:29;100894.44;;;27.53;100.00
2405;BME280;1213;43.206;27.922;2022-08-06T07:20:55;100893.59;;;27.66;100.00
2405;BME280;1213;43.206;27.922;2022-08-06T07:23:22;100892.31;;;27.82;100.00
2405;BME280;1213;43.206;27.922;2022-08-06T07:25:49;100899.56;;;27.88;100.00
2405;BME280;1213;43.206;27.922;2022-08-06T07:28:16;100891.03;;;27.91;100.00
2405;BME280;1213;43.206;27.922;2022-08-06T07:30:42;100895.78;;;28.02;100.00
2405;BME280;1213;43.206;27.922;2022-08-06T07:33:10;100895.16;;;28.00;100.00
2405;BME280;1213;43.206;27.922;2022-08-06T07:35:40;100886.41;;;28.11;100.00
2405;BME280;1213;43.206;27.922;2022-08-06T07:38:08;100887.78;;;28.27;100.00
2405;BME280;1213;43.206;27.922;2022-08-06T07:40:43;100891.50;;;28.39;100.00
2405;BME280;1213;43.206;27.922;2022-08-06T07:43:43;100893.78;;;28.42;100.00
2405;BME280;1213;43.206;27.922;2022-08-06T07:46:13;100891.06;;;28.42;100.00
2405;BME280;1213;43.206;27.922;2022-08-06T07:48:46;100891.44;;;28.53;100.00
2405;BME280;1213;43.206;27.922;2022-08-06T07:51:13;100889.97;;;28.57;100.00
2405;BME280;1213;43.206;27.922;2022-08-06T07:53:40;100894.09;;;28.59;100.00
2405;BME280;1213;43.206;27.922;2022-08-06T07:56:08;100899.19;;;28.74;100.00
2405;BME280;1213;43.206;27.922;2022-08-06T07:58:35;100896.50;;;28.74;100.00
2405;BME280;1213;43.206;27.922;2022-08-06T08:01:02;100905.22;;;28.76;100.00
2405;BME280;1213;43.206;27.922;2022-08-06T08:03:29;100899.19;;;28.74;100.00
2405;BME280;1213;43.206;27.922;2022-08-06T08:06:14;100896.91;;;28.71;100.00
2405;BME280;1213;43.206;27.922;2022-08-06T08:08:45;100896.19;;;28.89;100.00
2405;BME280;1213;43.206;27.922;2022-08-06T08:11:13;100890.75;;;28.95;100.00
2405;BME280;1213;43.206;27.922;2022-08-06T08:13:38;100892.59;;;29.26;100.00
2405;BME280;1213;43.206;27.922;2022-08-06T08:16:05;100888.88;;;29.21;100.00
2405;BME280;1213;43.206;27.922;2022-08-06T08:18:33;100900.09;;;29.24;100.00
2405;BME280;1213;43.206;27.922;2022-08-06T08:21:00;100895.13;;;29.21;100.00
2405;BME280;1213;43.206;27.922;2022-08-06T08:23:26;100900.59;;;29.15;100.00
2405;BME280;1213;43.206;27.922;2022-08-06T08:25:59;100894.84;;;29.29;100.00
2405;BME280;1213;43.206;27.922;2022-08-06T08:28:25;100897.59;;;29.23;100.00
2405;BME280;1213;43.206;27.922;2022-08-06T08:30:51;100896.25;;;29.32;100.00
2405;BME280;1213;43.206;27.922;2022-08-06T08:33:20;100900.03;;;29.31;100.00
2405;BME280;1213;43.206;27.922;2022-08-06T08:35:47;100900.66;;;29.33;100.00
2405;BME280;1213;43.206;27.922;2022-08-06T08:38:12;100906.84;;;29.40;100.00
2405;BME280;1213;43.206;27.922;2022-08-06T08:40:38;100910.09;;;29.49;100.00
2405;BME280;1213;43.206;27.922;2022-08-06T08:43:04;100908.94;;;29.63;100.00
2405;BME280;1213;43.206;27.922;2022-08-06T08:45:31;100902.25;;;29.66;100.00
2405;BME280;1213;43.206;27.922;2022-08-06T08:47:58;100901.28;;;29.78;100.00
2405;BME280;1213;43.206;27.922;2022-08-06T08:50:28;100899.38;;;29.97;100.00
2405;BME280;1213;43.206;27.922;2022-08-06T08:53:19;100904.22;;;30.14;100.00
2405;BME280;1213;43.206;27.922;2022-08-06T08:55:45;100897.56;;;30.28;100.00
2405;BME280;1213;43.206;27.922;2022-08-06T08:58:12;100904.56;;;30.35;100.00
2405;BME280;1213;43.206;27.922;2022-08-06T09:00:40;100901.34;;;30.57;100.00
2405;BME280;1213;43.206;27.922;2022-08-06T09:03:06;100900.28;;;30.46;100.00
2405;BME280;1213;43.206;27.922;2022-08-06T09:05:33;100905.97;;;30.56;100.00
2405;BME280;1213;43.206;27.922;2022-08-06T09:08:01;100913.22;;;30.74;100.00
2405;BME280;1213;43.206;27.922;2022-08-06T09:10:29;100912.84;;;31.01;100.00
2405;BME280;1213;43.206;27.922;2022-08-06T09:12:55;100906.50;;;31.07;100.00
2405;BME280;1213;43.206;27.922;2022-08-06T09:15:21;100912.66;;;31.26;100.00
2405;BME280;1213;43.206;27.922;2022-08-06T09:17:47;100910.75;;;31.14;100.00
2405;BME280;1213;43.206;27.922;2022-08-06T09:20:13;100906.66;;;31.24;100.00
2405;BME280;1213;43.206;27.922;2022-08-06T09:22:41;100908.38;;;31.06;100.00
2405;BME280;1213;43.206;27.922;2022-08-06T09:25:35;100901.25;;;30.93;100.00
2405;BME280;1213;43.206;27.922;2022-08-06T09:28:03;100906.31;;;30.78;100.00
2405;BME280;1213;43.206;27.922;2022-08-06T09:30:29;100910.44;;;30.81;100.00
2405;BME280;1213;43.206;27.922;2022-08-06T09:32:55;100909.50;;;30.87;100.00
2405;BME280;1213;43.206;27.922;2022-08-06T09:35:29;100913.63;;;30.78;100.00
2405;BME280;1213;43.206;27.922;2022-08-06T09:38:03;100915.94;;;31.16;100.00
2405;BME280;1213;43.206;27.922;2022-08-06T09:40:29;100915.84;;;31.34;100.00
2405;BME280;1213;43.206;27.922;2022-08-06T09:42:55;100908.16;;;31.66;100.00
2405;BME280;1213;43.206;27.922;2022-08-06T09:45:22;100910.66;;;31.80;100.00
2405;BME280;1213;43.206;27.922;2022-08-06T09:47:58;100905.13;;;31.74;100.00
2405;BME280;1213;43.206;27.922;2022-08-06T09:50:40;100910.31;;;31.64;100.00
2405;BME280;1213;43.206;27.922;2022-08-06T09:53:06;100900.41;;;31.82;100.00
2405;BME280;1213;43.206;27.922;2022-08-06T09:55:32;100898.25;;;31.72;100.00
2405;BME280;1213;43.206;27.922;2022-08-06T09:57:58;100906.88;;;31.69;100.00
2405;BME280;1213;43.206;27.922;2022-08-06T10:00:26;100911.84;;;31.60;100.00
2405;BME280;1213;43.206;27.922;2022-08-06T10:03:03;100903.22;;;31.63;100.00
2405;BME280;1213;43.206;27.922;2022-08-06T10:05:30;100918.75;;;31.21;100.00
2405;BME280;1213;43.206;27.922;2022-08-06T10:08:11;100919.94;;;31.13;100.00
2405;BME280;1213;43.206;27.922;2022-08-06T10:10:51;100917.75;;;31.34;100.00
2405;BME280;1213;43.206;27.922;2022-08-06T10:15:44;100916.47;;;31.60;100.00
2405;BME280;1213;43.206;27.922;2022-08-06T10:18:33;100923.44;;;31.44;100.00
2405;BME280;1213;43.206;27.922;2022-08-06T10:21:09;100928.63;;;31.45;100.00
2405;BME280;1213;43.206;27.922;2022-08-06T10:23:37;100921.06;;;31.47;100.00
2405;BME280;1213;43.206;27.922;2022-08-06T10:26:08;100925.78;;;31.29;100.00
2405;BME280;1213;43.206;27.922;2022-08-06T10:28:36;100922.78;;;31.18;100.00
2405;BME280;1213;43.206;27.922;2022-08-06T10:31:04;100928.06;;;31.02;100.00
2405;BME280;1213;43.206;27.922;2022-08-06T10:33:33;100924.13;;;30.86;100.00
2405;BME280;1213;43.206;27.922;2022-08-06T10:36:04;100929.47;;;30.92;100.00
2405;BME280;1213;43.206;27.922;2022-08-06T10:38:33;100923.25;;;31.15;100.00
2405;BME280;1213;43.206;27.922;2022-08-06T10:41:07;100916.03;;;31.21;100.00
2405;BME280;1213;43.206;27.922;2022-08-06T10:43:35;100918.09;;;31.26;100.00
2405;BME280;1213;43.206;27.922;2022-08-06T10:46:06;100912.44;;;31.51;100.00
2405;BME280;1213;43.206;27.922;2022-08-06T10:48:34;100922.16;;;31.82;100.00
2405;BME280;1213;43.206;27.922;2022-08-06T10:51:01;100909.16;;;31.84;100.00
2405;BME280;1213;43.206;27.922;2022-08-06T10:53:27;100911.69;;;32.02;100.00
2405;BME280;1213;43.206;27.922;2022-08-06T10:55:53;100904.88;;;32.40;100.00
2405;BME280;1213;43.206;27.922;2022-08-06T10:58:19;100904.91;;;32.56;100.00
2405;BME280;1213;43.206;27.922;2022-08-06T11:00:46;100907.94;;;32.43;100.00
2405;BME280;1213;43.206;27.922;2022-08-06T11:03:14;100904.28;;;32.26;100.00
2405;BME280;1213;43.206;27.922;2022-08-06T11:05:40;100924.53;;;32.18;100.00
2405;BME280;1213;43.206;27.922;2022-08-06T11:08:20;100902.19;;;32.16;100.00
2405;BME280;1213;43.206;27.922;2022-08-06T11:13:31;100911.03;;;31.60;100.00
2405;BME280;1213;43.206;27.922;2022-08-06T11:15:58;100909.03;;;31.67;100.00
2405;BME280;1213;43.206;27.922;2022-08-06T11:18:23;100917.16;;;31.32;100.00
2405;BME280;1213;43.206;27.922;2022-08-06T11:20:50;100912.09;;;31.47;100.00
2405;BME280;1213;43.206;27.922;2022-08-06T11:25:48;100918.00;;;31.32;100.00
2405;BME280;1213;43.206;27.922;2022-08-06T11:31:03;100917.88;;;31.39;100.00
2405;BME280;1213;43.206;27.922;2022-08-06T11:35:58;100915.63;;;31.24;100.00
2405;BME280;1213;43.206;27.922;2022-08-06T11:41:17;100914.59;;;30.95;100.00
2405;BME280;1213;43.206;27.922;2022-08-06T11:46:23;100912.13;;;30.93;100.00
2405;BME280;1213;43.206;27.922;2022-08-06T11:59:42;100904.94;;;30.99;100.00
2405;BME280;1213;43.206;27.922;2022-08-06T12:02:12;100901.66;;;31.09;100.00
2405;BME280;1213;43.206;27.922;2022-08-06T12:04:38;100898.41;;;31.30;100.00
2405;BME280;1213;43.206;27.922;2022-08-06T12:17:39;100883.81;;;31.01;100.00
2405;BME280;1213;43.206;27.922;2022-08-06T12:20:06;100881.97;;;31.25;100.00
2405;BME280;1213;43.206;27.922;2022-08-06T12:22:34;100886.81;;;31.23;100.00
2405;BME280;1213;43.206;27.922;2022-08-06T12:25:03;100879.50;;;31.24;100.00
2405;BME280;1213;43.206;27.922;2022-08-06T12:27:34;100876.09;;;30.86;100.00
2405;BME280;1213;43.206;27.922;2022-08-06T12:30:01;100878.63;;;31.00;100.00
2405;BME280;1213;43.206;27.922;2022-08-06T12:32:29;100871.94;;;31.26;100.00
2405;BME280;1213;43.206;27.922;2022-08-06T12:35:02;100870.03;;;31.26;100.00
2405;BME280;1213;43.206;27.922;2022-08-06T12:37:43;100867.66;;;31.06;100.00
2405;BME280;1213;43.206;27.922;2022-08-06T12:40:11;100875.00;;;31.29;100.00
2405;BME280;1213;43.206;27.922;2022-08-06T12:42:50;100880.63;;;31.16;100.00
2405;BME280;1213;43.206;27.922;2022-08-06T12:45:20;100876.28;;;31.27;100.00
2405;BME280;1213;43.206;27.922;2022-08-06T12:48:03;100874.41;;;31.39;100.00
2405;BME280;1213;43.206;27.922;2022-08-06T12:50:43;100872.50;;;31.16;100.00
2405;BME280;1213;43.206;27.922;2022-08-06T12:53:14;100874.50;;;31.09;100.00
2405;BME280;1213;43.206;27.922;2022-08-06T12:58:11;100877.09;;;31.15;100.00
2405;BME280;1213;43.206;27.922;2022-08-06T13:00:38;100875.19;;;30.92;100.00
2405;BME280;1213;43.206;27.922;2022-08-06T13:03:05;100871.53;;;31.10;100.00
2405;BME280;1213;43.206;27.922;2022-08-06T13:05:33;100869.75;;;31.04;100.00
2405;BME280;1213;43.206;27.922;2022-08-06T13:08:00;100869.28;;;30.84;100.00
2405;BME280;1213;43.206;27.922;2022-08-06T13:10:26;100860.75;;;30.50;100.00
2405;BME280;1213;43.206;27.922;2022-08-06T13:12:54;100865.44;;;30.43;100.00
2405;BME280;1213;43.206;27.922;2022-08-06T13:15:20;100860.66;;;30.27;100.00
2405;BME280;1213;43.206;27.922;2022-08-06T13:20:42;100858.31;;;30.60;100.00
2405;BME280;1213;43.206;27.922;2022-08-06T13:23:08;100853.91;;;30.78;100.00
2405;BME280;1213;43.206;27.922;2022-08-06T13:25:44;100852.84;;;30.79;100.00
2405;BME280;1213;43.206;27.922;2022-08-06T13:28:15;100849.22;;;30.85;100.00
2405;BME280;1213;43.206;27.922;2022-08-06T13:30:44;100854.75;;;30.90;100.00
2405;BME280;1213;43.206;27.922;2022-08-06T13:35:38;100848.88;;;30.93;100.00
2405;BME280;1213;43.206;27.922;2022-08-06T13:38:04;100845.09;;;30.94;100.00
2405;BME280;1213;43.206;27.922;2022-08-06T13:40:42;100842.50;;;31.11;100.00
2405;BME280;1213;43.206;27.922;2022-08-06T13:43:09;100841.56;;;31.40;100.00
2405;BME280;1213;43.206;27.922;2022-08-06T13:45:35;100824.91;;;31.48;100.00
2405;BME280;1213;43.206;27.922;2022-08-06T13:48:06;100826.31;;;31.51;100.00
2405;BME280;1213;43.206;27.922;2022-08-06T13:50:36;100833.53;;;31.34;100.00
2405;BME280;1213;43.206;27.922;2022-08-06T13:53:03;100818.53;;;31.43;100.00
2405;BME280;1213;43.206;27.922;2022-08-06T13:55:29;100826.56;;;31.49;100.00
2405;BME280;1213;43.206;27.922;2022-08-06T13:57:56;100830.00;;;31.21;100.00
2405;BME280;1213;43.206;27.922;2022-08-06T14:00:22;100829.28;;;31.03;100.00
2405;BME280;1213;43.206;27.922;2022-08-06T14:02:48;100828.69;;;31.01;100.00
2405;BME280;1213;43.206;27.922;2022-08-06T14:05:13;100839.28;;;30.90;100.00
2405;BME280;1213;43.206;27.922;2022-08-06T14:07:39;100833.16;;;30.83;100.00
2405;BME280;1213;43.206;27.922;2022-08-06T14:10:05;100831.78;;;30.62;100.00
2405;BME280;1213;43.206;27.922;2022-08-06T14:12:31;100837.00;;;30.76;100.00